sensor_id;sensor_type;location;lat;lon;timestamp;pressure;altitude;pressure_sealevel;temperature;humidity
30073;BME280;16897;52.422;13.678;2024-02-16T00:02:07;101273.88;;;13.47;63.63
30073;BME280;16897;52.422;13.678;2024-02-16T00:06:09;101295.25;;;13.55;63.61
30073;BME280;16897;52.422;13.678;2024-02-16T00:10:11;101308.19;;;13.58;63.69
30073;BME280;16897;52.422;13.678;2024-02-16T00:14:13;101299.78;;;13.53;63.53
30073;BME280;16897;52.422;13.678;2024-02-16T00:18:14;101295.81;;;13.46;63.74
30073;BME280;16897;52.422;13.678;2024-02-16T00:22:16;101294.56;;;13.37;63.60
30073;BME280;16897;52.422;13.678;2024-02-16T00:26:17;101288.63;;;13.34;63.77
30073;BME280;16897;52.422;13.678;2024-02-16T00:30:19;101295.66;;;13.33;63.57
30073;BME280;16897;52.422;13.678;2024-02-16T00:34:21;101291.75;;;13.24;63.50
30073;BME280;16897;52.422;13.678;2024-02-16T00:38:22;101288.66;;;13.18;63.51
30073;BME280;16897;52.422;13.678;2024-02-16T00:42:24;101273.28;;;12.96;63.69
30073;BME280;16897;52.422;13.678;2024-02-16T00:46:27;101284.94;;;13.06;63.55
30073;BME280;16897;52.422;13.678;2024-02-16T00:50:29;101290.19;;;13.06;63.54
30073;BME280;16897;52.422;13.678;2024-02-16T00:54:30;101292.91;;;13.04;63.49
30073;BME280;16897;52.422;13.678;2024-02-16T00:58:31;101279.47;;;12.95;63.60
30073;BME280;16897;52.422;13.678;2024-02-16T01:02:33;101287.31;;;12.95;63.61
30073;BME280;16897;52.422;13.678;2024-02-16T01:06:34;101261.97;;;12.79;63.59
30073;BME280;16897;52.422;13.678;2024-02-16T01:10:36;101269.09;;;12.77;63.46
30073;BME280;16897;52.422;13.678;2024-02-16T01:14:37;101274.16;;;12.80;63.47
30073;BME280;16897;52.422;13.678;2024-02-16T01:18:39;101238.97;;;12.53;63.51
30073;BME280;16897;52.422;13.678;2024-02-16T01:22:41;101236.53;;;12.50;63.37
30073;BME280;16897;52.422;13.678;2024-02-16T01:26:42;101267.91;;;12.67;63.61
30073;BME280;16897;52.422;13.678;2024-02-16T01:30:44;101252.78;;;12.56;63.56
30073;BME280;16897;52.422;13.678;2024-02-16T01:34:45;101267.47;;;12.59;63.43
30073;BME280;16897;52.422;13.678;2024-02-16T01:38:50;101263.31;;;12.55;63.58
30073;BME280;16897;52.422;13.678;2024-02-16T01:42:52;101262.81;;;12.48;63.67
30073;BME280;16897;52.422;13.678;2024-02-16T01:46:56;101246.59;;;12.42;63.63
30073;BME280;16897;52.422;13.678;2024-02-16T01:50:59;101261.28;;;12.44;63.55
30073;BME280;16897;52.422;13.678;2024-02-16T01:55:00;101252.66;;;12.42;63.60
30073;BME280;16897;52.422;13.678;2024-02-16T01:59:04;101217.25;;;12.19;63.61
30073;BME280;16897;52.422;13.678;2024-02-16T02:03:15;101236.53;;;12.34;63.64
30073;BME280;16897;52.422;13.678;2024-02-16T02:07:25;101244.38;;;12.34;63.53
30073;BME280;16897;52.422;13.678;2024-02-16T02:11:28;101242.34;;;12.39;63.71
30073;BME280;16897;52.422;13.678;2024-02-16T02:15:29;101239.06;;;12.35;63.55
30073;BME280;16897;52.422;13.678;2024-02-16T02:19:31;101222.84;;;12.29;63.55
30073;BME280;16897;52.422;13.678;2024-02-16T02:23:32;101212.63;;;12.24;63.62
30073;BME280;16897;52.422;13.678;2024-02-16T02:27:35;101220.72;;;12.20;63.74
30073;BME280;16897;52.422;13.678;2024-02-16T02:31:36;101206.28;;;12.12;63.59
30073;BME280;16897;52.422;13.678;2024-02-16T02:35:38;101172.38;;;11.93;63.67
30073;BME280;16897;52.422;13.678;2024-02-16T02:39:40;101171.53;;;11.93;63.76
30073;BME280;16897;52.422;13.678;2024-02-16T02:43:41;101185.91;;;12.02;63.65
30073;BME280;16897;52.422;13.678;2024-02-16T02:47:43;101187.78;;;12.00;63.64
30073;BME280;16897;52.422;13.678;2024-02-16T02:51:44;101194.50;;;12.04;63.69
30073;BME280;16897;52.422;13.678;2024-02-16T02:55:46;101183.72;;;11.94;63.66
30073;BME280;16897;52.422;13.678;2024-02-16T02:59:47;101149.69;;;11.77;63.53
30073;BME280;16897;52.422;13.678;2024-02-16T03:03:48;101175.94;;;11.92;63.53
30073;BME280;16897;52.422;13.678;2024-02-16T03:07:50;101184.72;;;11.91;63.77
30073;BME280;16897;52.422;13.678;2024-02-16T03:11:52;101173.78;;;11.83;63.73
30073;BME280;16897;52.422;13.678;2024-02-16T03:15:54;101141.22;;;11.56;63.67
30073;BME280;16897;52.422;13.678;2024-02-16T03:19:55;101182.94;;;11.74;63.69
30073;BME280;16897;52.422;13.678;2024-02-16T03:23:57;101167.06;;;11.62;63.47
30073;BME280;16897;52.422;13.678;2024-02-16T03:27:58;101135.81;;;11.43;63.47
30073;BME280;16897;52.422;13.678;2024-02-16T03:32:02;101169.91;;;11.57;63.58
30073;BME280;16897;52.422;13.678;2024-02-16T03:36:04;101174.47;;;11.54;63.72
30073;BME280;16897;52.422;13.678;2024-02-16T03:40:06;101171.16;;;11.50;63.65
30073;BME280;16897;52.422;13.678;2024-02-16T03:44:09;101170.47;;;11.46;63.63
30073;BME280;16897;52.422;13.678;2024-02-16T03:48:10;101161.19;;;11.41;63.71
30073;BME280;16897;52.422;13.678;2024-02-16T03:52:12;101172.94;;;11.49;63.66
30073;BME280;16897;52.422;13.678;2024-02-16T03:56:21;101168.69;;;11.47;63.70
30073;BME280;16897;52.422;13.678;2024-02-16T04:00:22;101143.88;;;11.38;63.63
30073;BME280;16897;52.422;13.678;2024-02-16T04:04:24;101148.78;;;11.44;63.71
30073;BME280;16897;52.422;13.678;2024-02-16T04:08:26;101116.16;;;11.18;63.79
30073;BME280;16897;52.422;13.678;2024-02-16T04:12:27;101128.81;;;11.26;63.65
30073;BME280;16897;52.422;13.678;2024-02-16T04:16:29;101140.97;;;11.27;63.73
30073;BME280;16897;52.422;13.678;2024-02-16T04:20:30;101143.38;;;11.32;63.72
30073;BME280;16897;52.422;13.678;2024-02-16T04:24:32;101140.03;;;11.28;63.65
30073;BME280;16897;52.422;13.678;2024-02-16T04:28:34;101121.28;;;11.20;63.60
30073;BME280;16897;52.422;13.678;2024-02-16T04:32:35;101145.53;;;11.23;63.77
30073;BME280;16897;52.422;13.678;2024-02-16T04:36:37;101135.19;;;11.20;63.69
30073;BME280;16897;52.422;13.678;2024-02-16T04:40:38;101100.47;;;11.01;63.64
30073;BME280;16897;52.422;13.678;2024-02-16T04:44:40;101112.38;;;11.06;63.48
30073;BME280;16897;52.422;13.678;2024-02-16T04:48:42;101118.38;;;11.08;63.66
30073;BME280;16897;52.422;13.678;2024-02-16T04:52:43;101105.63;;;11.02;63.79
30073;BME280;16897;52.422;13.678;2024-02-16T04:56:45;101104.69;;;11.03;63.63
30073;BME280;16897;52.422;13.678;2024-02-16T05:00:46;101123.38;;;11.13;64.00
30073;BME280;16897;52.422;13.678;2024-02-16T05:04:49;101092.13;;;10.94;63.74
30073;BME280;16897;52.422;13.678;2024-02-16T05:08:50;101128.28;;;11.19;64.04
30073;BME280;16897;52.422;13.678;2024-02-16T05:12:52;101115.00;;;11.24;63.80
30073;BME280;16897;52.422;13.678;2024-02-16T05:16:53;101098.88;;;11.16;63.85
30073;BME280;16897;52.422;13.678;2024-02-16T05:20:54;101087.78;;;11.11;63.89
30073;BME280;16897;52.422;13.678;2024-02-16T05:24:56;101107.00;;;11.27;63.88
30073;BME280;16897;52.422;13.678;2024-02-16T05:28:57;101085.78;;;11.16;63.90
30073;BME280;16897;52.422;13.678;2024-02-16T05:32:59;101108.59;;;11.29;63.79
30073;BME280;16897;52.422;13.678;2024-02-16T05:37:00;101117.28;;;11.30;63.96
30073;BME280;16897;52.422;13.678;2024-02-16T05:41:02;101100.03;;;11.26;63.76
30073;BME280;16897;52.422;13.678;2024-02-16T05:45:04;101110.38;;;11.29;63.98
30073;BME280;16897;52.422;13.678;2024-02-16T05:49:05;101107.50;;;11.34;63.98
30073;BME280;16897;52.422;13.678;2024-02-16T05:53:07;101075.16;;;11.19;63.99
30073;BME280;16897;52.422;13.678;2024-02-16T05:57:11;101081.91;;;11.23;63.89
30073;BME280;16897;52.422;13.678;2024-02-16T06:01:13;101080.84;;;11.27;63.95
30073;BME280;16897;52.422;13.678;2024-02-16T06:05:16;101092.75;;;11.33;63.83
30073;BME280;16897;52.422;13.678;2024-02-16T06:09:18;101083.81;;;11.37;63.90
30073;BME280;16897;52.422;13.678;2024-02-16T06:13:20;101063.78;;;11.20;63.93
30073;BME280;16897;52.422;13.678;2024-02-16T06:17:22;101090.41;;;11.44;63.92
30073;BME280;16897;52.422;13.678;2024-02-16T06:21:23;101054.78;;;11.25;64.08
30073;BME280;16897;52.422;13.678;2024-02-16T06:25:25;101069.88;;;11.36;64.07
30073;BME280;16897;52.422;13.678;2024-02-16T06:29:26;101088.03;;;11.39;63.96
30073;BME280;16897;52.422;13.678;2024-02-16T06:33:28;101103.31;;;11.47;64.00
30073;BME280;16897;52.422;13.678;2024-02-16T06:37:29;101061.78;;;11.25;64.10
30073;BME280;16897;52.422;13.678;2024-02-16T06:41:31;101059.81;;;11.28;63.97
30073;BME280;16897;52.422;13.678;2024-02-16T06:45:32;101079.34;;;11.39;64.11
30073;BME280;16897;52.422;13.678;2024-02-16T06:49:34;101100.41;;;11.53;64.04
30073;BME280;16897;52.422;13.678;2024-02-16T06:53:35;101098.63;;;11.54;64.24
30073;BME280;16897;52.422;13.678;2024-02-16T06:57:37;101091.94;;;11.48;64.12
30073;BME280;16897;52.422;13.678;2024-02-16T07:01:38;101052.34;;;11.38;64.00
30073;BME280;16897;52.422;13.678;2024-02-16T07:05:39;101086.88;;;11.61;64.09
30073;BME280;16897;52.422;13.678;2024-02-16T07:09:42;101063.69;;;11.55;64.15
30073;BME280;16897;52.422;13.678;2024-02-16T07:13:43;101072.13;;;11.60;64.15
30073;BME280;16897;52.422;13.678;2024-02-16T07:17:45;101062.91;;;11.52;64.28
30073;BME280;16897;52.422;13.678;2024-02-16T07:21:46;101070.53;;;11.73;64.06
30073;BME280;16897;52.422;13.678;2024-02-16T07:25:48;101080.00;;;11.76;64.08
30073;BME280;16897;52.422;13.678;2024-02-16T07:29:52;101076.19;;;11.81;64.08
30073;BME280;16897;52.422;13.678;2024-02-16T07:33:54;101081.22;;;11.86;64.18
30073;BME280;16897;52.422;13.678;2024-02-16T07:37:55;101058.72;;;11.82;64.34
30073;BME280;16897;52.422;13.678;2024-02-16T07:41:56;101048.78;;;11.72;64.29
30073;BME280;16897;52.422;13.678;2024-02-16T07:45:58;101068.88;;;11.88;64.12
30073;BME280;16897;52.422;13.678;2024-02-16T07:49:59;101036.34;;;11.76;64.17
30073;BME280;16897;52.422;13.678;2024-02-16T07:54:00;101074.09;;;12.04;64.16
30073;BME280;16897;52.422;13.678;2024-02-16T07:58:02;101059.69;;;11.97;64.26
30073;BME280;16897;52.422;13.678;2024-02-16T08:02:04;101076.41;;;12.10;64.16
30073;BME280;16897;52.422;13.678;2024-02-16T08:06:05;101066.06;;;12.07;64.32
30073;BME280;16897;52.422;13.678;2024-02-16T08:10:07;101075.94;;;12.17;64.20
30073;BME280;16897;52.422;13.678;2024-02-16T08:14:09;101045.31;;;12.04;64.31
30073;BME280;16897;52.422;13.678;2024-02-16T08:18:11;101053.41;;;12.15;64.32
30073;BME280;16897;52.422;13.678;2024-02-16T08:22:13;101054.34;;;12.14;64.26
30073;BME280;16897;52.422;13.678;2024-02-16T08:26:14;101034.53;;;12.10;64.33
30073;BME280;16897;52.422;13.678;2024-02-16T08:30:17;101079.72;;;12.44;64.41
30073;BME280;16897;52.422;13.678;2024-02-16T08:34:18;101073.53;;;12.45;64.29
30073;BME280;16897;52.422;13.678;2024-02-16T08:38:19;101055.38;;;12.42;64.23
30073;BME280;16897;52.422;13.678;2024-02-16T08:42:21;101082.22;;;12.61;64.29
30073;BME280;16897;52.422;13.678;2024-02-16T08:46:24;101046.16;;;12.50;64.24
30073;BME280;16897;52.422;13.678;2024-02-16T08:50:25;101050.13;;;12.72;64.28
30073;BME280;16897;52.422;13.678;2024-02-16T08:54:27;101053.16;;;12.80;64.41
30073;BME280;16897;52.422;13.678;2024-02-16T08:58:29;101049.22;;;12.87;64.32
30073;BME280;16897;52.422;13.678;2024-02-16T09:02:30;101045.50;;;12.91;64.15
30073;BME280;16897;52.422;13.678;2024-02-16T09:06:32;101068.25;;;13.05;64.23
30073;BME280;16897;52.422;13.678;2024-02-16T09:10:36;101013.94;;;12.78;64.36
30073;BME280;16897;52.422;13.678;2024-02-16T09:14:37;101054.69;;;13.13;64.39
30073;BME280;16897;52.422;13.678;2024-02-16T09:18:39;101058.72;;;13.18;64.35
30073;BME280;16897;52.422;13.678;2024-02-16T09:22:41;101047.69;;;13.27;64.56
30073;BME280;16897;52.422;13.678;2024-02-16T09:26:46;101063.53;;;13.40;64.34
30073;BME280;16897;52.422;13.678;2024-02-16T09:30:47;101069.16;;;13.48;64.36
30073;BME280;16897;52.422;13.678;2024-02-16T09:34:48;101044.97;;;13.43;64.29
30073;BME280;16897;52.422;13.678;2024-02-16T09:38:51;101051.13;;;13.57;64.27
30073;BME280;16897;52.422;13.678;2024-02-16T09:42:52;101067.06;;;13.68;64.31
30073;BME280;16897;52.422;13.678;2024-02-16T09:46:54;101055.59;;;13.69;64.26
30073;BME280;16897;52.422;13.678;2024-02-16T09:50:56;101050.06;;;13.73;64.26
30073;BME280;16897;52.422;13.678;2024-02-16T09:55:00;101044.44;;;13.80;64.44
30073;BME280;16897;52.422;13.678;2024-02-16T09:59:01;101020.56;;;13.70;64.34
30073;BME280;16897;52.422;13.678;2024-02-16T10:03:03;101041.22;;;13.89;64.19
30073;BME280;16897;52.422;13.678;2024-02-16T10:07:05;101041.22;;;13.89;64.33
30073;BME280;16897;52.422;13.678;2024-02-16T10:11:07;101061.16;;;14.06;64.27
30073;BME280;16897;52.422;13.678;2024-02-16T10:15:08;101071.38;;;14.10;64.22
30073;BME280;16897;52.422;13.678;2024-02-16T10:19:10;101071.16;;;14.13;64.17
30073;BME280;16897;52.422;13.678;2024-02-16T10:23:12;101077.81;;;14.19;64.22
30073;BME280;16897;52.422;13.678;2024-02-16T10:27:17;101045.19;;;14.09;64.29
30073;BME280;16897;52.422;13.678;2024-02-16T10:31:19;101069.22;;;14.30;64.34
30073;BME280;16897;52.422;13.678;2024-02-16T10:35:20;101072.94;;;14.40;64.16
30073;BME280;16897;52.422;13.678;2024-02-16T10:39:23;101073.47;;;14.45;64.26
30073;BME280;16897;52.422;13.678;2024-02-16T10:43:25;101068.09;;;14.47;64.31
30073;BME280;16897;52.422;13.678;2024-02-16T10:47:27;101026.16;;;14.32;64.23
30073;BME280;16897;52.422;13.678;2024-02-16T10:51:47;101046.03;;;14.49;64.30
30073;BME280;16897;52.422;13.678;2024-02-16T10:55:50;101041.91;;;14.59;64.15
30073;BME280;16897;52.422;13.678;2024-02-16T10:59:53;100987.56;;;14.33;64.15
30073;BME280;16897;52.422;13.678;2024-02-16T11:04:03;101047.06;;;14.74;64.22
30073;BME280;16897;52.422;13.678;2024-02-16T11:08:11;101036.34;;;14.77;64.26
30073;BME280;16897;52.422;13.678;2024-02-16T11:12:13;101031.81;;;14.79;64.12
30073;BME280;16897;52.422;13.678;2024-02-16T11:16:17;101023.31;;;14.88;64.17
30073;BME280;16897;52.422;13.678;2024-02-16T11:20:18;101028.25;;;14.93;64.18
30073;BME280;16897;52.422;13.678;2024-02-16T11:24:20;101017.09;;;15.02;64.24
30073;BME280;16897;52.422;13.678;2024-02-16T11:28:32;101020.66;;;15.14;64.20
30073;BME280;16897;52.422;13.678;2024-02-16T11:32:34;100993.75;;;15.10;64.29
30073;BME280;16897;52.422;13.678;2024-02-16T11:36:35;101011.72;;;15.29;64.28
30073;BME280;16897;52.422;13.678;2024-02-16T11:40:37;101010.13;;;15.39;64.08
30073;BME280;16897;52.422;13.678;2024-02-16T11:44:51;101006.72;;;15.50;64.05
30073;BME280;16897;52.422;13.678;2024-02-16T11:48:52;100992.47;;;15.53;63.99
30073;BME280;16897;52.422;13.678;2024-02-16T11:52:53;100987.41;;;15.62;64.01
30073;BME280;16897;52.422;13.678;2024-02-16T11:56:55;100981.28;;;15.75;64.17
30073;BME280;16897;52.422;13.678;2024-02-16T12:00:57;100958.28;;;15.77;63.96
30073;BME280;16897;52.422;13.678;2024-02-16T12:05:01;100969.28;;;15.95;63.96
30073;BME280;16897;52.422;13.678;2024-02-16T12:09:03;100966.91;;;16.03;63.84
30073;BME280;16897;52.422;13.678;2024-02-16T12:13:05;100954.22;;;15.97;63.83
30073;BME280;16897;52.422;13.678;2024-02-16T12:17:06;100968.19;;;16.21;63.79
30073;BME280;16897;52.422;13.678;2024-02-16T12:21:08;100957.63;;;16.21;63.76
30073;BME280;16897;52.422;13.678;2024-02-16T12:25:12;100971.34;;;16.37;63.79
30073;BME280;16897;52.422;13.678;2024-02-16T12:29:14;100971.00;;;16.42;63.48
30073;BME280;16897;52.422;13.678;2024-02-16T12:33:15;100973.66;;;16.53;63.65
30073;BME280;16897;52.422;13.678;2024-02-16T12:37:17;100943.31;;;16.36;63.80
30073;BME280;16897;52.422;13.678;2024-02-16T12:41:19;100978.09;;;16.64;63.73
30073;BME280;16897;52.422;13.678;2024-02-16T12:45:20;100972.47;;;16.69;63.75
30073;BME280;16897;52.422;13.678;2024-02-16T12:49:22;100980.78;;;16.87;63.53
30073;BME280;16897;52.422;13.678;2024-02-16T12:53:23;100997.44;;;16.98;63.83
30073;BME280;16897;52.422;13.678;2024-02-16T12:57:31;100987.75;;;16.99;63.59
30073;BME280;16897;52.422;13.678;2024-02-16T13:01:32;100988.00;;;17.07;63.52
30073;BME280;16897;52.422;13.678;2024-02-16T13:05:34;100967.00;;;17.06;63.72
30073;BME280;16897;52.422;13.678;2024-02-16T13:09:35;100994.00;;;17.20;63.76
30073;BME280;16897;52.422;13.678;2024-02-16T13:13:37;100988.22;;;17.27;63.41
30073;BME280;16897;52.422;13.678;2024-02-16T13:17:38;100985.34;;;17.30;63.40
30073;BME280;16897;52.422;13.678;2024-02-16T13:21:39;100966.63;;;17.21;63.41
30073;BME280;16897;52.422;13.678;2024-02-16T13:25:41;100973.81;;;17.31;63.58
30073;BME280;16897;52.422;13.678;2024-02-16T13:29:42;100956.81;;;17.23;63.36
30073;BME280;16897;52.422;13.678;2024-02-16T13:33:44;100967.69;;;17.30;63.30
30073;BME280;16897;52.422;13.678;2024-02-16T13:37:45;100968.31;;;17.34;63.48
30073;BME280;16897;52.422;13.678;2024-02-16T13:41:47;100957.13;;;17.30;63.52
30073;BME280;16897;52.422;13.678;2024-02-16T13:45:54;100981.00;;;17.40;63.43
30073;BME280;16897;52.422;13.678;2024-02-16T13:49:55;100976.66;;;17.39;63.19
30073;BME280;16897;52.422;13.678;2024-02-16T13:53:58;100968.75;;;17.39;63.48
30073;BME280;16897;52.422;13.678;2024-02-16T13:57:59;100976.44;;;17.42;63.39
30073;BME280;16897;52.422;13.678;2024-02-16T14:02:01;100965.28;;;17.38;63.16
30073;BME280;16897;52.422;13.678;2024-02-16T14:06:02;100965.16;;;17.40;63.18
30073;BME280;16897;52.422;13.678;2024-02-16T14:10:04;100983.50;;;17.41;63.34
30073;BME280;16897;52.422;13.678;2024-02-16T14:14:06;100977.41;;;17.41;63.20
30073;BME280;16897;52.422;13.678;2024-02-16T14:18:08;100963.03;;;17.34;63.06
30073;BME280;16897;52.422;13.678;2024-02-16T14:22:09;100948.16;;;17.21;63.19
30073;BME280;16897;52.422;13.678;2024-02-16T14:26:13;100983.66;;;17.40;62.77
30073;BME280;16897;52.422;13.678;2024-02-16T14:30:15;100963.25;;;17.31;62.94
30073;BME280;16897;52.422;13.678;2024-02-16T14:34:16;100958.59;;;17.34;62.86
30073;BME280;16897;52.422;13.678;2024-02-16T14:38:18;100958.59;;;17.34;63.05
30073;BME280;16897;52.422;13.678;2024-02-16T14:42:19;100919.63;;;17.15;62.94
30073;BME280;16897;52.422;13.678;2024-02-16T14:46:25;100954.38;;;17.32;63.11
30073;BME280;16897;52.422;13.678;2024-02-16T14:50:26;100968.31;;;17.34;62.95
30073;BME280;16897;52.422;13.678;2024-02-16T14:54:27;100983.66;;;17.40;62.87
30073;BME280;16897;52.422;13.678;2024-02-16T14:58:29;100981.13;;;17.38;63.03
30073;BME280;16897;52.422;13.678;2024-02-16T15:02:30;100979.44;;;17.37;62.95
30073;BME280;16897;52.422;13.678;2024-02-16T15:06:32;100980.53;;;17.35;62.79
30073;BME280;16897;52.422;13.678;2024-02-16T15:10:37;100990.75;;;17.39;62.89
30073;BME280;16897;52.422;13.678;2024-02-16T15:14:38;100995.28;;;17.37;62.89
30073;BME280;16897;52.422;13.678;2024-02-16T15:18:40;100991.94;;;17.35;62.91
30073;BME280;16897;52.422;13.678;2024-02-16T15:22:41;100999.00;;;17.35;62.83
30073;BME280;16897;52.422;13.678;2024-02-16T15:26:42;100998.91;;;17.36;62.89
30073;BME280;16897;52.422;13.678;2024-02-16T15:30:44;100996.38;;;17.35;62.86
30073;BME280;16897;52.422;13.678;2024-02-16T15:34:46;101006.69;;;17.38;62.72
30073;BME280;16897;52.422;13.678;2024-02-16T15:38:50;101001.75;;;17.33;62.56
30073;BME280;16897;52.422;13.678;2024-02-16T15:43:05;100992.53;;;17.28;62.69
30073;BME280;16897;52.422;13.678;2024-02-16T15:47:11;101000.94;;;17.33;62.49
30073;BME280;16897;52.422;13.678;2024-02-16T15:51:13;100977.94;;;17.12;62.69
30073;BME280;16897;52.422;13.678;2024-02-16T15:55:14;100973.84;;;17.08;62.50
30073;BME280;16897;52.422;13.678;2024-02-16T15:59:15;101008.50;;;17.26;62.46
30073;BME280;16897;52.422;13.678;2024-02-16T16:03:17;101004.56;;;17.20;62.42
30073;BME280;16897;52.422;13.678;2024-02-16T16:07:19;101001.19;;;17.18;62.57
30073;BME280;16897;52.422;13.678;2024-02-16T16:11:20;101015.69;;;17.24;62.65
30073;BME280;16897;52.422;13.678;2024-02-16T16:15:22;101004.19;;;17.14;62.59
30073;BME280;16897;52.422;13.678;2024-02-16T16:19:24;101035.75;;;17.27;62.29
30073;BME280;16897;52.422;13.678;2024-02-16T16:23:25;101029.50;;;17.16;62.38
30073;BME280;16897;52.422;13.678;2024-02-16T16:27:28;101030.56;;;17.14;62.36
30073;BME280;16897;52.422;13.678;2024-02-16T16:31:33;101035.84;;;17.14;62.42
30073;BME280;16897;52.422;13.678;2024-02-16T16:35:35;101036.94;;;17.11;62.24
30073;BME280;16897;52.422;13.678;2024-02-16T16:39:36;101052.28;;;17.17;62.54
30073;BME280;16897;52.422;13.678;2024-02-16T16:43:37;101053.25;;;17.16;62.43
30073;BME280;16897;52.422;13.678;2024-02-16T16:47:39;101065.00;;;17.12;62.40
30073;BME280;16897;52.422;13.678;2024-02-16T16:51:44;101066.69;;;17.13;62.39
30073;BME280;16897;52.422;13.678;2024-02-16T16:55:45;101075.78;;;17.09;62.24
30073;BME280;16897;52.422;13.678;2024-02-16T16:59:47;101078.41;;;17.09;62.22
30073;BME280;16897;52.422;13.678;2024-02-16T17:03:48;101074.94;;;16.97;62.46
30073;BME280;16897;52.422;13.678;2024-02-16T17:07:50;101084.66;;;17.08;62.37
30073;BME280;16897;52.422;13.678;2024-02-16T17:11:53;101085.50;;;16.97;62.23
30073;BME280;16897;52.422;13.678;2024-02-16T17:15:57;101092.22;;;17.01;62.26
30073;BME280;16897;52.422;13.678;2024-02-16T17:20:00;101091.50;;;16.99;62.18
30073;BME280;16897;52.422;13.678;2024-02-16T17:24:01;101107.91;;;17.03;62.14
30073;BME280;16897;52.422;13.678;2024-02-16T17:28:03;101092.81;;;16.94;62.12
30073;BME280;16897;52.422;13.678;2024-02-16T17:32:05;101102.38;;;16.95;62.38
30073;BME280;16897;52.422;13.678;2024-02-16T17:36:07;101075.25;;;16.81;62.11
30073;BME280;16897;52.422;13.678;2024-02-16T17:40:11;101117.38;;;16.94;62.33
30073;BME280;16897;52.422;13.678;2024-02-16T17:44:12;101099.84;;;16.82;62.19
30073;BME280;16897;52.422;13.678;2024-02-16T17:48:14;101102.59;;;16.80;62.12
30073;BME280;16897;52.422;13.678;2024-02-16T17:52:16;101097.63;;;16.76;62.14
30073;BME280;16897;52.422;13.678;2024-02-16T17:56:18;101092.31;;;16.65;62.05
30073;BME280;16897;52.422;13.678;2024-02-16T18:00:20;101111.88;;;16.73;62.31
30073;BME280;16897;52.422;13.678;2024-02-16T18:04:22;101128.97;;;16.80;62.24
30073;BME280;16897;52.422;13.678;2024-02-16T18:08:25;101118.13;;;16.72;62.04
30073;BME280;16897;52.422;13.678;2024-02-16T18:12:26;101093.22;;;16.52;62.31
30073;BME280;16897;52.422;13.678;2024-02-16T18:16:27;101124.56;;;16.68;62.05
30073;BME280;16897;52.422;13.678;2024-02-16T18:20:29;101142.16;;;16.80;62.07
30073;BME280;16897;52.422;13.678;2024-02-16T18:24:30;101145.94;;;16.76;61.98
30073;BME280;16897;52.422;13.678;2024-02-16T18:28:32;101152.13;;;16.77;62.21
30073;BME280;16897;52.422;13.678;2024-02-16T18:32:33;101116.34;;;16.49;62.11
30073;BME280;16897;52.422;13.678;2024-02-16T18:36:35;101164.25;;;16.67;62.03
30073;BME280;16897;52.422;13.678;2024-02-16T18:40:36;101186.56;;;16.74;62.31
30073;BME280;16897;52.422;13.678;2024-02-16T18:44:37;101174.91;;;16.65;62.18
30073;BME280;16897;52.422;13.678;2024-02-16T18:48:40;101174.91;;;16.65;61.89
30073;BME280;16897;52.422;13.678;2024-02-16T18:52:41;101189.34;;;16.72;62.07
30073;BME280;16897;52.422;13.678;2024-02-16T18:56:43;101176.81;;;16.63;62.18
30073;BME280;16897;52.422;13.678;2024-02-16T19:00:44;101189.81;;;16.66;62.02
30073;BME280;16897;52.422;13.678;2024-02-16T19:04:46;101196.75;;;16.67;61.88
30073;BME280;16897;52.422;13.678;2024-02-16T19:08:47;101191.94;;;16.61;62.06
30073;BME280;16897;52.422;13.678;2024-02-16T19:12:49;101196.34;;;16.60;62.11
30073;BME280;16897;52.422;13.678;2024-02-16T19:16:50;101184.81;;;16.50;62.15
30073;BME280;16897;52.422;13.678;2024-02-16T19:20:52;101176.59;;;16.42;61.91
30073;BME280;16897;52.422;13.678;2024-02-16T19:24:58;101202.06;;;16.54;62.10
30073;BME280;16897;52.422;13.678;2024-02-16T19:28:59;101196.78;;;16.54;61.96
30073;BME280;16897;52.422;13.678;2024-02-16T19:33:01;101191.13;;;16.48;61.95
30073;BME280;16897;52.422;13.678;2024-02-16T19:37:03;101192.19;;;16.45;62.06
30073;BME280;16897;52.422;13.678;2024-02-16T19:41:04;101200.22;;;16.44;61.82
30073;BME280;16897;52.422;13.678;2024-02-16T19:45:06;101201.03;;;16.44;62.19
30073;BME280;16897;52.422;13.678;2024-02-16T19:49:08;101227.09;;;16.49;62.06
30073;BME280;16897;52.422;13.678;2024-02-16T19:53:09;101225.28;;;16.49;62.13
30073;BME280;16897;52.422;13.678;2024-02-16T19:57:11;101232.25;;;16.50;62.06
30073;BME280;16897;52.422;13.678;2024-02-16T20:01:13;101233.09;;;16.51;62.09
30073;BME280;16897;52.422;13.678;2024-02-16T20:05:14;101230.78;;;16.46;62.00
30073;BME280;16897;52.422;13.678;2024-02-16T20:09:19;101238.81;;;16.45;61.87
30073;BME280;16897;52.422;13.678;2024-02-16T20:13:20;101236.19;;;16.45;62.10
30073;BME280;16897;52.422;13.678;2024-02-16T20:17:22;101251.31;;;16.54;61.99
30073;BME280;16897;52.422;13.678;2024-02-16T20:21:23;101251.66;;;16.49;62.01
30073;BME280;16897;52.422;13.678;2024-02-16T20:25:25;101265.47;;;16.53;62.12
30073;BME280;16897;52.422;13.678;2024-02-16T20:29:26;101259.78;;;16.46;62.05
30073;BME280;16897;52.422;13.678;2024-02-16T20:33:30;101265.56;;;16.51;62.12
30073;BME280;16897;52.422;13.678;2024-02-16T20:37:31;101276.22;;;16.50;62.03
30073;BME280;16897;52.422;13.678;2024-02-16T20:41:33;101278.97;;;16.48;62.23
30073;BME280;16897;52.422;13.678;2024-02-16T20:45:37;101279.28;;;16.44;61.91
30073;BME280;16897;52.422;13.678;2024-02-16T20:49:38;101285.31;;;16.46;62.17